sensor_id;sensor_type;location;lat;lon;timestamp;P1;durP1;ratioP1;P2;durP2;ratioP2
83562;SDS011;73535;52.500;13.482;2023-12-20T00:02:07;8.38;;;6.68;;
83562;SDS011;73535;52.500;13.482;2023-12-20T00:04:33;7.10;;;6.03;;
83562;SDS011;73535;52.500;13.482;2023-12-20T00:06:58;8.23;;;6.18;;
83562;SDS011;73535;52.500;13.482;2023-12-20T00:09:23;7.15;;;5.78;;
83562;SDS011;73535;52.500;13.482;2023-12-20T00:11:48;6.97;;;5.80;;
83562;SDS011;73535;52.500;13.482;2023-12-20T00:14:14;6.63;;;5.82;;
83562;SDS011;73535;52.500;13.482;2023-12-20T00:16:39;6.90;;;5.72;;
83562;SDS011;73535;52.500;13.482;2023-12-20T00:19:04;7.47;;;5.95;;
83562;SDS011;73535;52.500;13.482;2023-12-20T00:21:29;7.68;;;5.93;;
83562;SDS011;73535;52.500;13.482;2023-12-20T00:23:55;6.95;;;5.10;;
83562;SDS011;73535;52.500;13.482;2023-12-20T00:26:20;6.15;;;5.13;;
83562;SDS011;73535;52.500;13.482;2023-12-20T00:28:45;7.68;;;6.35;;
83562;SDS011;73535;52.500;13.482;2023-12-20T00:31:10;6.20;;;5.47;;
83562;SDS011;73535;52.500;13.482;2023-12-20T00:33:35;6.75;;;5.53;;
83562;SDS011;73535;52.500;13.482;2023-12-20T00:36:01;8.07;;;6.20;;
83562;SDS011;73535;52.500;13.482;2023-12-20T00:38:26;6.30;;;5.20;;
83562;SDS011;73535;52.500;13.482;2023-12-20T00:40:51;6.18;;;5.28;;
83562;SDS011;73535;52.500;13.482;2023-12-20T00:43:17;8.27;;;5.63;;
83562;SDS011;73535;52.500;13.482;2023-12-20T00:45:42;7.22;;;5.40;;
83562;SDS011;73535;52.500;13.482;2023-12-20T00:48:07;6.07;;;5.28;;
83562;SDS011;73535;52.500;13.482;2023-12-20T00:50:32;7.25;;;5.57;;
83562;SDS011;73535;52.500;13.482;2023-12-20T00:52:58;7.90;;;5.25;;
83562;SDS011;73535;52.500;13.482;2023-12-20T00:55:23;6.60;;;5.10;;
83562;SDS011;73535;52.500;13.482;2023-12-20T00:57:48;6.90;;;5.50;;
83562;SDS011;73535;52.500;13.482;2023-12-20T01:00:13;5.60;;;4.72;;
83562;SDS011;73535;52.500;13.482;2023-12-20T01:02:39;6.13;;;5.15;;
83562;SDS011;73535;52.500;13.482;2023-12-20T01:05:05;6.45;;;4.95;;
83562;SDS011;73535;52.500;13.482;2023-12-20T01:07:32;5.85;;;5.00;;
83562;SDS011;73535;52.500;13.482;2023-12-20T01:09:57;5.97;;;5.28;;
83562;SDS011;73535;52.500;13.482;2023-12-20T01:12:22;5.97;;;4.82;;
83562;SDS011;73535;52.500;13.482;2023-12-20T01:14:47;6.43;;;5.15;;
83562;SDS011;73535;52.500;13.482;2023-12-20T01:17:13;6.10;;;4.78;;
83562;SDS011;73535;52.500;13.482;2023-12-20T01:19:38;5.72;;;4.97;;
83562;SDS011;73535;52.500;13.482;2023-12-20T01:22:03;5.88;;;5.28;;
83562;SDS011;73535;52.500;13.482;2023-12-20T01:24:29;7.70;;;6.28;;
83562;SDS011;73535;52.500;13.482;2023-12-20T01:26:54;6.82;;;5.50;;
83562;SDS011;73535;52.500;13.482;2023-12-20T01:29:19;8.77;;;6.70;;
83562;SDS011;73535;52.500;13.482;2023-12-20T01:31:45;5.70;;;5.10;;
83562;SDS011;73535;52.500;13.482;2023-12-20T01:34:10;9.73;;;7.05;;
83562;SDS011;73535;52.500;13.482;2023-12-20T01:36:35;6.95;;;5.60;;
83562;SDS011;73535;52.500;13.482;2023-12-20T01:39:00;9.45;;;7.20;;
83562;SDS011;73535;52.500;13.482;2023-12-20T01:41:26;7.22;;;5.88;;
83562;SDS011;73535;52.500;13.482;2023-12-20T01:43:51;7.13;;;5.63;;
83562;SDS011;73535;52.500;13.482;2023-12-20T01:48:43;6.95;;;5.63;;
83562;SDS011;73535;52.500;13.482;2023-12-20T01:51:09;6.18;;;5.47;;
83562;SDS011;73535;52.500;13.482;2023-12-20T01:53:35;5.70;;;4.78;;
83562;SDS011;73535;52.500;13.482;2023-12-20T01:56:00;5.93;;;5.10;;
83562;SDS011;73535;52.500;13.482;2023-12-20T01:58:26;7.32;;;5.30;;
83562;SDS011;73535;52.500;13.482;2023-12-20T02:00:52;7.53;;;5.97;;
83562;SDS011;73535;52.500;13.482;2023-12-20T02:03:19;6.32;;;5.13;;
83562;SDS011;73535;52.500;13.482;2023-12-20T02:05:45;6.68;;;5.45;;
83562;SDS011;73535;52.500;13.482;2023-12-20T02:08:12;6.15;;;4.78;;
83562;SDS011;73535;52.500;13.482;2023-12-20T02:10:38;6.97;;;5.57;;
83562;SDS011;73535;52.500;13.482;2023-12-20T02:13:03;6.40;;;5.53;;
83562;SDS011;73535;52.500;13.482;2023-12-20T02:15:29;6.10;;;4.38;;
83562;SDS011;73535;52.500;13.482;2023-12-20T02:17:54;6.50;;;5.00;;
83562;SDS011;73535;52.500;13.482;2023-12-20T02:20:20;5.35;;;4.43;;
83562;SDS011;73535;52.500;13.482;2023-12-20T02:22:45;6.97;;;5.25;;
83562;SDS011;73535;52.500;13.482;2023-12-20T02:25:10;3.85;;;2.60;;
83562;SDS011;73535;52.500;13.482;2023-12-20T02:27:35;4.07;;;2.45;;
83562;SDS011;73535;52.500;13.482;2023-12-20T02:30:01;2.55;;;1.70;;
83562;SDS011;73535;52.500;13.482;2023-12-20T02:32:26;3.53;;;2.03;;
83562;SDS011;73535;52.500;13.482;2023-12-20T02:34:52;2.58;;;2.22;;
83562;SDS011;73535;52.500;13.482;2023-12-20T02:37:18;3.60;;;2.70;;
83562;SDS011;73535;52.500;13.482;2023-12-20T02:39:43;4.78;;;3.20;;
83562;SDS011;73535;52.500;13.482;2023-12-20T02:42:08;4.35;;;3.33;;
83562;SDS011;73535;52.500;13.482;2023-12-20T02:44:34;4.72;;;3.17;;
83562;SDS011;73535;52.500;13.482;2023-12-20T02:46:59;4.53;;;3.60;;
83562;SDS011;73535;52.500;13.482;2023-12-20T02:49:24;4.88;;;3.72;;
83562;SDS011;73535;52.500;13.482;2023-12-20T02:51:49;4.68;;;3.80;;
83562;SDS011;73535;52.500;13.482;2023-12-20T02:54:15;4.75;;;3.80;;
83562;SDS011;73535;52.500;13.482;2023-12-20T02:56:40;5.00;;;4.03;;
83562;SDS011;73535;52.500;13.482;2023-12-20T02:59:05;4.82;;;4.32;;
83562;SDS011;73535;52.500;13.482;2023-12-20T03:01:31;4.18;;;3.67;;
83562;SDS011;73535;52.500;13.482;2023-12-20T03:03:56;5.22;;;4.03;;
83562;SDS011;73535;52.500;13.482;2023-12-20T03:06:21;5.78;;;4.15;;
83562;SDS011;73535;52.500;13.482;2023-12-20T03:08:47;6.93;;;3.65;;
83562;SDS011;73535;52.500;13.482;2023-12-20T03:11:12;6.35;;;3.55;;
83562;SDS011;73535;52.500;13.482;2023-12-20T03:13:37;5.97;;;4.00;;
83562;SDS011;73535;52.500;13.482;2023-12-20T03:16:09;4.70;;;4.20;;
83562;SDS011;73535;52.500;13.482;2023-12-20T03:18:35;4.82;;;3.30;;
83562;SDS011;73535;52.500;13.482;2023-12-20T03:21:00;6.47;;;3.10;;
83562;SDS011;73535;52.500;13.482;2023-12-20T03:23:26;5.78;;;3.15;;
83562;SDS011;73535;52.500;13.482;2023-12-20T03:25:52;4.03;;;2.95;;
83562;SDS011;73535;52.500;13.482;2023-12-20T03:28:17;7.20;;;2.90;;
83562;SDS011;73535;52.500;13.482;2023-12-20T03:30:42;3.97;;;3.10;;
83562;SDS011;73535;52.500;13.482;2023-12-20T03:33:08;6.25;;;3.40;;
83562;SDS011;73535;52.500;13.482;2023-12-20T03:35:33;4.53;;;2.80;;
83562;SDS011;73535;52.500;13.482;2023-12-20T03:37:58;5.88;;;2.55;;
83562;SDS011;73535;52.500;13.482;2023-12-20T03:42:50;7.03;;;2.10;;
83562;SDS011;73535;52.500;13.482;2023-12-20T03:45:15;6.32;;;2.40;;
83562;SDS011;73535;52.500;13.482;2023-12-20T03:47:40;6.20;;;2.50;;
83562;SDS011;73535;52.500;13.482;2023-12-20T03:50:06;5.80;;;2.10;;
83562;SDS011;73535;52.500;13.482;2023-12-20T03:52:31;6.55;;;2.10;;
83562;SDS011;73535;52.500;13.482;2023-12-20T03:54:57;7.43;;;2.30;;
83562;SDS011;73535;52.500;13.482;2023-12-20T03:57:22;5.38;;;2.22;;
83562;SDS011;73535;52.500;13.482;2023-12-20T03:59:47;7.40;;;2.63;;
83562;SDS011;73535;52.500;13.482;2023-12-20T04:02:12;5.03;;;1.92;;
83562;SDS011;73535;52.500;13.482;2023-12-20T04:04:38;4.70;;;2.00;;
83562;SDS011;73535;52.500;13.482;2023-12-20T04:07:03;11.25;;;2.67;;
83562;SDS011;73535;52.500;13.482;2023-12-20T04:09:28;4.93;;;1.80;;
83562;SDS011;73535;52.500;13.482;2023-12-20T04:11:53;6.35;;;2.08;;
83562;SDS011;73535;52.500;13.482;2023-12-20T04:14:19;5.65;;;2.13;;
83562;SDS011;73535;52.500;13.482;2023-12-20T04:16:44;4.93;;;1.67;;
83562;SDS011;73535;52.500;13.482;2023-12-20T04:19:09;6.70;;;1.55;;
83562;SDS011;73535;52.500;13.482;2023-12-20T04:21:34;5.40;;;1.60;;
83562;SDS011;73535;52.500;13.482;2023-12-20T04:23:59;8.60;;;1.92;;
83562;SDS011;73535;52.500;13.482;2023-12-20T04:26:25;6.20;;;1.80;;
83562;SDS011;73535;52.500;13.482;2023-12-20T04:28:50;4.97;;;1.70;;
83562;SDS011;73535;52.500;13.482;2023-12-20T04:31:15;11.93;;;1.80;;
83562;SDS011;73535;52.500;13.482;2023-12-20T04:33:40;6.63;;;1.60;;
83562;SDS011;73535;52.500;13.482;2023-12-20T04:36:06;10.88;;;1.98;;
83562;SDS011;73535;52.500;13.482;2023-12-20T04:38:31;9.57;;;2.17;;
83562;SDS011;73535;52.500;13.482;2023-12-20T04:40:56;7.95;;;1.67;;
83562;SDS011;73535;52.500;13.482;2023-12-20T04:43:22;5.68;;;1.70;;
83562;SDS011;73535;52.500;13.482;2023-12-20T04:45:47;7.55;;;1.77;;
83562;SDS011;73535;52.500;13.482;2023-12-20T04:48:12;6.47;;;1.92;;
83562;SDS011;73535;52.500;13.482;2023-12-20T04:50:37;5.55;;;1.90;;
83562;SDS011;73535;52.500;13.482;2023-12-20T04:53:03;7.03;;;2.03;;
83562;SDS011;73535;52.500;13.482;2023-12-20T04:55:28;8.75;;;2.22;;
83562;SDS011;73535;52.500;13.482;2023-12-20T04:57:53;7.57;;;2.10;;
83562;SDS011;73535;52.500;13.482;2023-12-20T05:00:19;6.88;;;1.80;;
83562;SDS011;73535;52.500;13.482;2023-12-20T05:02:45;8.07;;;2.33;;
83562;SDS011;73535;52.500;13.482;2023-12-20T05:05:10;7.13;;;1.95;;
83562;SDS011;73535;52.500;13.482;2023-12-20T05:07:35;6.03;;;1.70;;
83562;SDS011;73535;52.500;13.482;2023-12-20T05:10:00;10.35;;;2.08;;
83562;SDS011;73535;52.500;13.482;2023-12-20T05:12:26;7.53;;;2.20;;
83562;SDS011;73535;52.500;13.482;2023-12-20T05:14:51;7.78;;;1.92;;
83562;SDS011;73535;52.500;13.482;2023-12-20T05:17:17;5.90;;;1.48;;
83562;SDS011;73535;52.500;13.482;2023-12-20T05:19:42;9.40;;;2.30;;
83562;SDS011;73535;52.500;13.482;2023-12-20T05:22:07;8.27;;;2.00;;
83562;SDS011;73535;52.500;13.482;2023-12-20T05:24:33;5.03;;;1.60;;
83562;SDS011;73535;52.500;13.482;2023-12-20T05:26:58;8.95;;;2.10;;
83562;SDS011;73535;52.500;13.482;2023-12-20T05:29:23;7.10;;;1.92;;
83562;SDS011;73535;52.500;13.482;2023-12-20T05:31:48;6.95;;;2.40;;
83562;SDS011;73535;52.500;13.482;2023-12-20T05:34:13;9.02;;;2.53;;
83562;SDS011;73535;52.500;13.482;2023-12-20T05:36:39;6.35;;;2.28;;
83562;SDS011;73535;52.500;13.482;2023-12-20T05:39:04;6.15;;;1.90;;
83562;SDS011;73535;52.500;13.482;2023-12-20T05:41:32;9.48;;;2.30;;
83562;SDS011;73535;52.500;13.482;2023-12-20T05:43:57;4.72;;;1.40;;
83562;SDS011;73535;52.500;13.482;2023-12-20T05:46:23;8.60;;;2.22;;
83562;SDS011;73535;52.500;13.482;2023-12-20T05:48:49;8.55;;;1.90;;
83562;SDS011;73535;52.500;13.482;2023-12-20T05:51:14;10.82;;;2.33;;
83562;SDS011;73535;52.500;13.482;2023-12-20T05:53:39;7.53;;;2.13;;
83562;SDS011;73535;52.500;13.482;2023-12-20T05:56:04;12.95;;;2.50;;
83562;SDS011;73535;52.500;13.482;2023-12-20T05:58:30;6.22;;;2.10;;
83562;SDS011;73535;52.500;13.482;2023-12-20T06:00:55;5.80;;;1.88;;
83562;SDS011;73535;52.500;13.482;2023-12-20T06:03:20;8.48;;;2.60;;
83562;SDS011;73535;52.500;13.482;2023-12-20T06:05:46;10.48;;;1.88;;
83562;SDS011;73535;52.500;13.482;2023-12-20T06:08:11;10.50;;;1.70;;
83562;SDS011;73535;52.500;13.482;2023-12-20T06:10:36;7.53;;;1.83;;
83562;SDS011;73535;52.500;13.482;2023-12-20T06:13:01;6.07;;;1.50;;
83562;SDS011;73535;52.500;13.482;2023-12-20T06:15:26;6.43;;;2.08;;
83562;SDS011;73535;52.500;13.482;2023-12-20T06:17:52;9.40;;;2.00;;
83562;SDS011;73535;52.500;13.482;2023-12-20T06:20:17;5.65;;;1.40;;
83562;SDS011;73535;52.500;13.482;2023-12-20T06:22:42;11.57;;;1.90;;
83562;SDS011;73535;52.500;13.482;2023-12-20T06:25:07;6.18;;;1.63;;
83562;SDS011;73535;52.500;13.482;2023-12-20T06:27:33;8.25;;;1.90;;
83562;SDS011;73535;52.500;13.482;2023-12-20T06:29:59;6.38;;;1.70;;
83562;SDS011;73535;52.500;13.482;2023-12-20T06:32:24;5.45;;;1.30;;
83562;SDS011;73535;52.500;13.482;2023-12-20T06:34:49;5.28;;;1.38;;
83562;SDS011;73535;52.500;13.482;2023-12-20T06:37:15;9.45;;;2.00;;
83562;SDS011;73535;52.500;13.482;2023-12-20T06:39:40;7.03;;;2.00;;
83562;SDS011;73535;52.500;13.482;2023-12-20T06:42:05;8.68;;;1.73;;
83562;SDS011;73535;52.500;13.482;2023-12-20T06:44:31;7.50;;;2.08;;
83562;SDS011;73535;52.500;13.482;2023-12-20T06:46:56;5.43;;;1.92;;
83562;SDS011;73535;52.500;13.482;2023-12-20T06:49:22;8.00;;;2.20;;
83562;SDS011;73535;52.500;13.482;2023-12-20T06:51:47;6.25;;;1.63;;
83562;SDS011;73535;52.500;13.482;2023-12-20T06:54:12;5.28;;;1.83;;
83562;SDS011;73535;52.500;13.482;2023-12-20T06:56:38;8.77;;;2.15;;
83562;SDS011;73535;52.500;13.482;2023-12-20T06:59:04;6.88;;;1.85;;
83562;SDS011;73535;52.500;13.482;2023-12-20T07:01:29;11.90;;;2.13;;
83562;SDS011;73535;52.500;13.482;2023-12-20T07:03:54;5.25;;;1.83;;
83562;SDS011;73535;52.500;13.482;2023-12-20T07:06:19;7.78;;;2.38;;
83562;SDS011;73535;52.500;13.482;2023-12-20T07:08:45;7.57;;;2.35;;
83562;SDS011;73535;52.500;13.482;2023-12-20T07:11:10;9.05;;;2.15;;
83562;SDS011;73535;52.500;13.482;2023-12-20T07:13:36;7.03;;;2.08;;
83562;SDS011;73535;52.500;13.482;2023-12-20T07:16:01;10.05;;;2.22;;
83562;SDS011;73535;52.500;13.482;2023-12-20T07:18:26;10.18;;;2.00;;
83562;SDS011;73535;52.500;13.482;2023-12-20T07:20:51;9.38;;;2.42;;
83562;SDS011;73535;52.500;13.482;2023-12-20T07:23:17;6.95;;;2.22;;
83562;SDS011;73535;52.500;13.482;2023-12-20T07:25:42;5.80;;;1.83;;
83562;SDS011;73535;52.500;13.482;2023-12-20T07:28:07;9.30;;;2.40;;
83562;SDS011;73535;52.500;13.482;2023-12-20T07:30:32;7.78;;;2.58;;
83562;SDS011;73535;52.500;13.482;2023-12-20T07:32:58;7.85;;;2.38;;
83562;SDS011;73535;52.500;13.482;2023-12-20T07:35:23;9.73;;;2.78;;
83562;SDS011;73535;52.500;13.482;2023-12-20T07:37:50;12.55;;;2.30;;
83562;SDS011;73535;52.500;13.482;2023-12-20T07:40:15;8.02;;;2.70;;
83562;SDS011;73535;52.500;13.482;2023-12-20T07:42:42;6.57;;;2.13;;
83562;SDS011;73535;52.500;13.482;2023-12-20T07:45:07;5.80;;;2.00;;
83562;SDS011;73535;52.500;13.482;2023-12-20T07:47:32;7.35;;;2.30;;
83562;SDS011;73535;52.500;13.482;2023-12-20T07:49:57;7.10;;;2.45;;
83562;SDS011;73535;52.500;13.482;2023-12-20T07:52:23;6.93;;;1.95;;
83562;SDS011;73535;52.500;13.482;2023-12-20T07:54:48;7.07;;;1.63;;
83562;SDS011;73535;52.500;13.482;2023-12-20T07:57:13;5.88;;;1.55;;
83562;SDS011;73535;52.500;13.482;2023-12-20T07:59:38;6.65;;;1.90;;
83562;SDS011;73535;52.500;13.482;2023-12-20T08:02:04;11.68;;;1.80;;
83562;SDS011;73535;52.500;13.482;2023-12-20T08:04:29;6.22;;;2.97;;
83562;SDS011;73535;52.500;13.482;2023-12-20T08:06:54;5.05;;;1.42;;
83562;SDS011;73535;52.500;13.482;2023-12-20T08:09:20;5.50;;;2.00;;
83562;SDS011;73535;52.500;13.482;2023-12-20T08:11:46;5.85;;;1.52;;
83562;SDS011;73535;52.500;13.482;2023-12-20T08:14:11;5.57;;;1.40;;
83562;SDS011;73535;52.500;13.482;2023-12-20T08:16:36;9.15;;;1.80;;
83562;SDS011;73535;52.500;13.482;2023-12-20T08:19:02;11.20;;;2.08;;
83562;SDS011;73535;52.500;13.482;2023-12-20T08:21:27;9.63;;;2.08;;
83562;SDS011;73535;52.500;13.482;2023-12-20T08:23:52;6.80;;;2.38;;
83562;SDS011;73535;52.500;13.482;2023-12-20T08:26:20;5.13;;;1.88;;
83562;SDS011;73535;52.500;13.482;2023-12-20T08:28:47;4.57;;;1.80;;
83562;SDS011;73535;52.500;13.482;2023-12-20T08:31:16;7.90;;;1.90;;
83562;SDS011;73535;52.500;13.482;2023-12-20T08:33:43;8.25;;;1.83;;
83562;SDS011;73535;52.500;13.482;2023-12-20T08:36:09;6.22;;;1.80;;
83562;SDS011;73535;52.500;13.482;2023-12-20T08:38:34;7.38;;;1.95;;
83562;SDS011;73535;52.500;13.482;2023-12-20T08:40:59;3.97;;;1.88;;
83562;SDS011;73535;52.500;13.482;2023-12-20T08:43:25;7.53;;;1.63;;
83562;SDS011;73535;52.500;13.482;2023-12-20T08:45:50;5.35;;;1.80;;
83562;SDS011;73535;52.500;13.482;2023-12-20T08:48:15;8.75;;;2.13;;
83562;SDS011;73535;52.500;13.482;2023-12-20T08:50:40;8.65;;;2.03;;
83562;SDS011;73535;52.500;13.482;2023-12-20T08:53:06;9.73;;;1.70;;
83562;SDS011;73535;52.500;13.482;2023-12-20T08:55:31;5.32;;;1.60;;
83562;SDS011;73535;52.500;13.482;2023-12-20T08:57:57;10.90;;;1.80;;
83562;SDS011;73535;52.500;13.482;2023-12-20T09:00:22;4.60;;;1.80;;
83562;SDS011;73535;52.500;13.482;2023-12-20T09:02:50;5.00;;;1.55;;
83562;SDS011;73535;52.500;13.482;2023-12-20T09:05:16;5.90;;;1.75;;
83562;SDS011;73535;52.500;13.482;2023-12-20T09:07:41;7.80;;;2.22;;
83562;SDS011;73535;52.500;13.482;2023-12-20T09:10:06;6.13;;;1.90;;
83562;SDS011;73535;52.500;13.482;2023-12-20T09:12:32;8.85;;;1.73;;
83562;SDS011;73535;52.500;13.482;2023-12-20T09:14:57;5.75;;;1.70;;
83562;SDS011;73535;52.500;13.482;2023-12-20T09:17:22;5.40;;;1.70;;
83562;SDS011;73535;52.500;13.482;2023-12-20T09:19:48;6.40;;;1.88;;
83562;SDS011;73535;52.500;13.482;2023-12-20T09:22:13;9.75;;;1.83;;
83562;SDS011;73535;52.500;13.482;2023-12-20T09:24:38;6.15;;;1.85;;
83562;SDS011;73535;52.500;13.482;2023-12-20T09:27:04;12.85;;;2.00;;
83562;SDS011;73535;52.500;13.482;2023-12-20T09:29:32;8.48;;;2.05;;
83562;SDS011;73535;52.500;13.482;2023-12-20T09:31:58;7.43;;;2.05;;
83562;SDS011;73535;52.500;13.482;2023-12-20T09:34:23;6.28;;;2.13;;
83562;SDS011;73535;52.500;13.482;2023-12-20T09:36:49;6.32;;;1.63;;
83562;SDS011;73535;52.500;13.482;2023-12-20T09:39:14;7.30;;;2.22;;
83562;SDS011;73535;52.500;13.482;2023-12-20T09:41:44;8.05;;;2.15;;
83562;SDS011;73535;52.500;13.482;2023-12-20T09:44:14;6.75;;;2.10;;
83562;SDS011;73535;52.500;13.482;2023-12-20T09:46:42;6.97;;;1.90;;
83562;SDS011;73535;52.500;13.482;2023-12-20T09:49:09;6.07;;;2.33;;
83562;SDS011;73535;52.500;13.482;2023-12-20T09:51:35;8.38;;;2.13;;
83562;SDS011;73535;52.500;13.482;2023-12-20T09:54:01;9.20;;;2.33;;
83562;SDS011;73535;52.500;13.482;2023-12-20T09:56:28;7.28;;;2.10;;
83562;SDS011;73535;52.500;13.482;2023-12-20T09:58:54;5.30;;;1.80;;
83562;SDS011;73535;52.500;13.482;2023-12-20T10:01:19;7.90;;;2.20;;
83562;SDS011;73535;52.500;13.482;2023-12-20T10:03:45;7.25;;;1.90;;
83562;SDS011;73535;52.500;13.482;2023-12-20T10:06:11;5.07;;;1.52;;
83562;SDS011;73535;52.500;13.482;2023-12-20T10:08:36;5.25;;;2.10;;
83562;SDS011;73535;52.500;13.482;2023-12-20T10:11:01;6.47;;;2.45;;
83562;SDS011;73535;52.500;13.482;2023-12-20T10:13:28;6.18;;;2.10;;
83562;SDS011;73535;52.500;13.482;2023-12-20T10:15:54;6.95;;;1.85;;
83562;SDS011;73535;52.500;13.482;2023-12-20T10:18:20;5.07;;;2.08;;
83562;SDS011;73535;52.500;13.482;2023-12-20T10:20:45;14.48;;;3.33;;
83562;SDS011;73535;52.500;13.482;2023-12-20T10:23:11;7.25;;;1.45;;
83562;SDS011;73535;52.500;13.482;2023-12-20T10:25:37;3.85;;;1.67;;
83562;SDS011;73535;52.500;13.482;2023-12-20T10:28:09;4.30;;;1.85;;
83562;SDS011;73535;52.500;13.482;2023-12-20T10:30:38;8.88;;;2.40;;
83562;SDS011;73535;52.500;13.482;2023-12-20T10:33:07;4.90;;;2.05;;
83562;SDS011;73535;52.500;13.482;2023-12-20T10:35:33;10.68;;;2.58;;
83562;SDS011;73535;52.500;13.482;2023-12-20T10:38:00;8.52;;;2.05;;
83562;SDS011;73535;52.500;13.482;2023-12-20T10:40:29;5.32;;;1.60;;
83562;SDS011;73535;52.500;13.482;2023-12-20T10:42:54;6.22;;;2.05;;
83562;SDS011;73535;52.500;13.482;2023-12-20T10:45:20;8.63;;;2.63;;
83562;SDS011;73535;52.500;13.482;2023-12-20T10:47:46;5.93;;;2.00;;
83562;SDS011;73535;52.500;13.482;2023-12-20T10:50:13;6.90;;;1.70;;
83562;SDS011;73535;52.500;13.482;2023-12-20T10:52:39;9.52;;;2.13;;
83562;SDS011;73535;52.500;13.482;2023-12-20T10:55:05;10.00;;;2.00;;
83562;SDS011;73535;52.500;13.482;2023-12-20T10:57:31;8.40;;;1.90;;
83562;SDS011;73535;52.500;13.482;2023-12-20T10:59:57;6.95;;;2.08;;
83562;SDS011;73535;52.500;13.482;2023-12-20T11:02:28;7.55;;;2.15;;
83562;SDS011;73535;52.500;13.482;2023-12-20T11:05:00;7.95;;;2.35;;
83562;SDS011;73535;52.500;13.482;2023-12-20T11:07:35;9.52;;;2.55;;
83562;SDS011;73535;52.500;13.482;2023-12-20T11:10:10;7.05;;;2.03;;
83562;SDS011;73535;52.500;13.482;2023-12-20T11:12:52;12.77;;;2.53;;
83562;SDS011;73535;52.500;13.482;2023-12-20T11:15:22;10.32;;;2.60;;
83562;SDS011;73535;52.500;13.482;2023-12-20T11:17:56;6.78;;;2.17;;
83562;SDS011;73535;52.500;13.482;2023-12-20T11:20:22;7.90;;;2.78;;
83562;SDS011;73535;52.500;13.482;2023-12-20T11:22:54;6.53;;;2.42;;
83562;SDS011;73535;52.500;13.482;2023-12-20T11:25:20;8.15;;;2.42;;
83562;SDS011;73535;52.500;13.482;2023-12-20T11:27:47;7.93;;;2.40;;
83562;SDS011;73535;52.500;13.482;2023-12-20T11:30:47;5.45;;;1.90;;
83562;SDS011;73535;52.500;13.482;2023-12-20T11:33:23;14.27;;;2.50;;
83562;SDS011;73535;52.500;13.482;2023-12-20T11:35:50;10.13;;;2.42;;
83562;SDS011;73535;52.500;13.482;2023-12-20T11:38:15;8.95;;;2.35;;
83562;SDS011;73535;52.500;13.482;2023-12-20T11:40:41;6.88;;;2.35;;
83562;SDS011;73535;52.500;13.482;2023-12-20T11:43:08;10.20;;;1.90;;
83562;SDS011;73535;52.500;13.482;2023-12-20T11:45:33;6.75;;;2.20;;
83562;SDS011;73535;52.500;13.482;2023-12-20T11:47:59;9.52;;;2.15;;
83562;SDS011;73535;52.500;13.482;2023-12-20T11:50:28;7.70;;;1.98;;
83562;SDS011;73535;52.500;13.482;2023-12-20T11:52:57;7.68;;;2.30;;
83562;SDS011;73535;52.500;13.482;2023-12-20T11:55:23;10.75;;;2.08;;
83562;SDS011;73535;52.500;13.482;2023-12-20T11:57:49;9.25;;;2.30;;
83562;SDS011;73535;52.500;13.482;2023-12-20T12:00:15;7.30;;;2.30;;
83562;SDS011;73535;52.500;13.482;2023-12-20T12:02:41;7.57;;;2.72;;
83562;SDS011;73535;52.500;13.482;2023-12-20T12:05:06;6.10;;;2.30;;
83562;SDS011;73535;52.500;13.482;2023-12-20T12:07:33;9.40;;;2.35;;
83562;SDS011;73535;52.500;13.482;2023-12-20T12:09:59;6.38;;;1.88;;
83562;SDS011;73535;52.500;13.482;2023-12-20T12:12:24;5.78;;;2.25;;
83562;SDS011;73535;52.500;13.482;2023-12-20T12:14:51;7.13;;;1.92;;
83562;SDS011;73535;52.500;13.482;2023-12-20T12:17:17;5.00;;;2.30;;
83562;SDS011;73535;52.500;13.482;2023-12-20T12:19:42;7.65;;;2.33;;
83562;SDS011;73535;52.500;13.482;2023-12-20T12:22:09;4.68;;;2.13;;
83562;SDS011;73535;52.500;13.482;2023-12-20T12:24:38;8.75;;;2.20;;
83562;SDS011;73535;52.500;13.482;2023-12-20T12:27:05;8.43;;;2.00;;
83562;SDS011;73535;52.500;13.482;2023-12-20T12:29:31;7.50;;;1.98;;
83562;SDS011;73535;52.500;13.482;2023-12-20T12:31:56;7.22;;;1.73;;
83562;SDS011;73535;52.500;13.482;2023-12-20T12:34:21;9.50;;;2.05;;
83562;SDS011;73535;52.500;13.482;2023-12-20T12:36:47;10.85;;;2.45;;
83562;SDS011;73535;52.500;13.482;2023-12-20T12:41:40;7.65;;;2.72;;
83562;SDS011;73535;52.500;13.482;2023-12-20T12:44:05;6.45;;;2.17;;
83562;SDS011;73535;52.500;13.482;2023-12-20T12:46:31;6.63;;;2.10;;
83562;SDS011;73535;52.500;13.482;2023-12-20T12:51:22;7.27;;;2.47;;
83562;SDS011;73535;52.500;13.482;2023-12-20T12:53:48;9.40;;;3.08;;
83562;SDS011;73535;52.500;13.482;2023-12-20T12:56:13;7.15;;;2.45;;
83562;SDS011;73535;52.500;13.482;2023-12-20T12:58:39;8.55;;;2.17;;
83562;SDS011;73535;52.500;13.482;2023-12-20T13:01:04;6.55;;;2.38;;
83562;SDS011;73535;52.500;13.482;2023-12-20T13:03:29;6.65;;;2.30;;
83562;SDS011;73535;52.500;13.482;2023-12-20T13:05:55;10.52;;;2.50;;
83562;SDS011;73535;52.500;13.482;2023-12-20T13:08:20;9.52;;;2.95;;
83562;SDS011;73535;52.500;13.482;2023-12-20T13:10:45;9.18;;;2.35;;
83562;SDS011;73535;52.500;13.482;2023-12-20T13:13:11;8.07;;;2.45;;
83562;SDS011;73535;52.500;13.482;2023-12-20T13:15:36;6.85;;;2.28;;
83562;SDS011;73535;52.500;13.482;2023-12-20T13:18:01;8.52;;;2.20;;
83562;SDS011;73535;52.500;13.482;2023-12-20T13:20:27;6.15;;;2.72;;
83562;SDS011;73535;52.500;13.482;2023-12-20T13:22:52;5.80;;;2.88;;
83562;SDS011;73535;52.500;13.482;2023-12-20T13:25:17;8.57;;;2.70;;
83562;SDS011;73535;52.500;13.482;2023-12-20T13:27:43;7.82;;;3.03;;
83562;SDS011;73535;52.500;13.482;2023-12-20T13:30:08;7.35;;;2.53;;
83562;SDS011;73535;52.500;13.482;2023-12-20T13:32:34;3.67;;;1.70;;
83562;SDS011;73535;52.500;13.482;2023-12-20T13:34:59;2.67;;;1.20;;
83562;SDS011;73535;52.500;13.482;2023-12-20T13:37:24;3.55;;;1.77;;
83562;SDS011;73535;52.500;13.482;2023-12-20T13:39:50;3.30;;;1.50;;
83562;SDS011;73535;52.500;13.482;2023-12-20T13:42:15;3.42;;;0.93;;
83562;SDS011;73535;52.500;13.482;2023-12-20T13:44:40;1.20;;;0.80;;
83562;SDS011;73535;52.500;13.482;2023-12-20T13:47:05;2.45;;;1.20;;
83562;SDS011;73535;52.500;13.482;2023-12-20T13:49:31;2.13;;;0.82;;
83562;SDS011;73535;52.500;13.482;2023-12-20T13:51:56;2.28;;;1.10;;
83562;SDS011;73535;52.500;13.482;2023-12-20T13:54:22;2.58;;;0.90;;
83562;SDS011;73535;52.500;13.482;2023-12-20T13:56:47;3.03;;;1.05;;
83562;SDS011;73535;52.500;13.482;2023-12-20T13:59:13;3.40;;;1.00;;
83562;SDS011;73535;52.500;13.482;2023-12-20T14:01:39;2.22;;;1.20;;
83562;SDS011;73535;52.500;13.482;2023-12-20T14:04:05;4.15;;;1.35;;
83562;SDS011;73535;52.500;13.482;2023-12-20T14:06:30;3.35;;;1.10;;
83562;SDS011;73535;52.500;13.482;2023-12-20T14:08:55;3.92;;;1.50;;
83562;SDS011;73535;52.500;13.482;2023-12-20T14:11:20;3.65;;;1.40;;
83562;SDS011;73535;52.500;13.482;2023-12-20T14:13:46;2.90;;;1.30;;
83562;SDS011;73535;52.500;13.482;2023-12-20T14:16:11;3.78;;;1.08;;
83562;SDS011;73535;52.500;13.482;2023-12-20T14:18:37;4.05;;;1.63;;
83562;SDS011;73535;52.500;13.482;2023-12-20T14:21:02;3.20;;;1.08;;
83562;SDS011;73535;52.500;13.482;2023-12-20T14:23:27;4.63;;;1.77;;
83562;SDS011;73535;52.500;13.482;2023-12-20T14:25:53;2.60;;;0.93;;
83562;SDS011;73535;52.500;13.482;2023-12-20T14:28:18;3.25;;;1.55;;
83562;SDS011;73535;52.500;13.482;2023-12-20T14:30:44;2.63;;;0.90;;
83562;SDS011;73535;52.500;13.482;2023-12-20T14:33:09;2.40;;;0.90;;
83562;SDS011;73535;52.500;13.482;2023-12-20T14:35:34;1.27;;;0.73;;